createdAt,value
2023-04-07T00:02:44.378Z,101520.98
2023-04-07T00:08:10.524Z,101526.63
2023-04-07T00:13:36.537Z,101522.17
2023-04-07T00:19:02.244Z,101515.89
2023-04-07T00:24:34.394Z,101514.85
2023-04-07T00:30:00.645Z,101515.58
2023-04-07T00:35:27.487Z,101514.79
2023-04-07T00:40:51.899Z,101512.38
2023-04-07T00:46:17.942Z,101510.13
2023-04-07T00:51:44.302Z,101508.33
2023-04-07T00:57:10.381Z,101505.44
2023-04-07T01:02:39.169Z,101505.41
2023-04-07T01:08:16.106Z,101496.23
2023-04-07T01:13:48.794Z,101492.05
2023-04-07T01:19:18.448Z,101491.78
2023-04-07T01:25:02.788Z,101481.70
2023-04-07T01:30:32.068Z,101475.02
2023-04-07T01:35:59.455Z,101472.56
2023-04-07T01:41:26.435Z,101472.48
2023-04-07T01:46:52.536Z,101473.08
2023-04-07T01:52:19.812Z,101471.95
2023-04-07T01:57:45.640Z,101475.73
2023-04-07T02:03:18.780Z,101473.55
2023-04-07T02:08:47.437Z,101464.77
2023-04-07T02:14:14.716Z,101463.23
2023-04-07T02:19:41.014Z,101464.20
2023-04-07T02:25:06.786Z,101460.95
2023-04-07T02:30:34.275Z,101454.55
2023-04-07T02:36:00.133Z,101455.05
2023-04-07T02:41:26.101Z,101451.52
2023-04-07T02:46:51.812Z,101451.26
2023-04-07T02:52:17.445Z,101449.73
2023-04-07T02:57:43.369Z,101450.17
2023-04-07T03:03:09.217Z,101452.90
2023-04-07T03:08:35.044Z,101456.46
2023-04-07T03:13:59.376Z,101455.77
2023-04-07T03:19:25.313Z,101445.99
2023-04-07T03:24:51.049Z,101442.41
2023-04-07T03:30:17.505Z,101439.38
2023-04-07T03:35:43.430Z,101433.90
2023-04-07T03:41:09.074Z,101433.44
2023-04-07T03:46:33.770Z,101429.48
2023-04-07T03:51:59.446Z,101427.90
2023-04-07T03:57:25.508Z,101428.90
2023-04-07T04:02:51.317Z,101427.52
2023-04-07T04:08:17.114Z,101427.57
2023-04-07T04:13:42.824Z,101429.35
2023-04-07T04:19:08.839Z,101433.64
2023-04-07T04:24:34.548Z,101431.89
2023-04-07T04:29:52.842Z,101434.63
2023-04-07T04:35:18.487Z,101427.09
2023-04-07T04:40:44.374Z,101428.34
2023-04-07T04:46:10.401Z,101430.63
2023-04-07T04:51:36.319Z,101432.65
2023-04-07T04:57:02.048Z,101434.73
2023-04-07T05:02:28.106Z,101440.15
2023-04-07T05:07:52.610Z,101441.21
2023-04-07T05:13:11.335Z,101443.29
2023-04-07T05:18:37.013Z,101442.79
2023-04-07T05:23:55.669Z,101443.18
2023-04-07T05:29:21.334Z,101444.41
2023-04-07T05:34:47.158Z,101439.71
2023-04-07T05:40:12.800Z,101436.58
2023-04-07T05:45:38.852Z,101437.36
2023-04-07T05:51:05.072Z,101438.61
2023-04-07T05:56:30.755Z,101441.05
2023-04-07T06:01:59.694Z,101439.50
2023-04-07T06:07:26.153Z,101441.84
2023-04-07T06:12:51.979Z,101446.68
2023-04-07T06:18:17.639Z,101446.70
2023-04-07T06:23:43.327Z,101450.30
2023-04-07T06:29:09.237Z,101449.79
2023-04-07T06:34:34.984Z,101453.67
2023-04-07T06:40:00.677Z,101462.11
2023-04-07T06:45:27.944Z,101468.92
2023-04-07T06:50:54.581Z,101464.65
2023-04-07T06:56:28.084Z,101467.02
2023-04-07T07:01:54.123Z,101468.85
2023-04-07T07:07:19.988Z,101463.23
2023-04-07T07:12:45.723Z,101467.88
2023-04-07T07:18:11.750Z,101468.45
2023-04-07T07:23:37.474Z,101465.69
2023-04-07T07:29:03.220Z,101466.55
2023-04-07T07:34:28.869Z,101466.95
2023-04-07T07:39:54.765Z,101473.20
2023-04-07T07:45:20.748Z,101474.80
2023-04-07T07:50:46.438Z,101473.59
2023-04-07T07:56:12.470Z,101477.81
2023-04-07T08:01:25.266Z,101481.14
2023-04-07T08:06:51.066Z,101483.41
2023-04-07T08:12:16.888Z,101485.08
2023-04-07T08:17:42.757Z,101486.50
2023-04-07T08:22:48.505Z,101491.14
2023-04-07T08:27:54.228Z,101496.30
2023-04-07T08:33:07.333Z,101494.31
2023-04-07T08:38:27.333Z,101491.80
2023-04-07T08:43:47.420Z,101492.09
2023-04-07T08:49:15.884Z,101491.93
2023-04-07T09:00:06.425Z,101498.02
2023-04-07T09:22:12.432Z,101519.64
2023-04-07T09:44:36.724Z,101520.68
2023-04-07T09:50:08.089Z,101521.42
2023-04-07T09:55:34.169Z,101515.70
2023-04-07T10:01:00.045Z,101514.66
2023-04-07T10:06:27.472Z,101513.69
2023-04-07T10:11:44.410Z,101521.08
2023-04-07T10:17:10.523Z,101523.83
2023-04-07T10:28:25.281Z,101526.81
2023-04-07T10:40:01.702Z,101527.89
2023-04-07T10:45:29.191Z,101527.23
2023-04-07T10:50:45.027Z,101525.42
2023-04-07T10:56:15.981Z,101523.73
2023-04-07T11:01:41.084Z,101518.91
2023-04-07T11:24:17.205Z,101517.30
2023-04-07T11:29:50.892Z,101514.84
2023-04-07T11:35:17.790Z,101513.06
2023-04-07T11:40:47.985Z,101508.17
2023-04-07T12:08:55.082Z,101505.27
2023-04-07T18:00:42.686Z,101530.27
